sensor_id;sensor_type;location;lat;lon;timestamp;P1;durP1;ratioP1;P2;durP2;ratioP2
18822;SDS011;9540;51.550;7.980;2022-12-13T00:01:53;63.03;;;24.00;;
18822;SDS011;9540;51.550;7.980;2022-12-13T00:04:21;68.07;;;25.47;;
18822;SDS011;9540;51.550;7.980;2022-12-13T00:06:49;59.47;;;23.50;;
18822;SDS011;9540;51.550;7.980;2022-12-13T00:09:18;55.47;;;21.77;;
18822;SDS011;9540;51.550;7.980;2022-12-13T00:11:46;56.60;;;23.40;;
18822;SDS011;9540;51.550;7.980;2022-12-13T00:14:14;63.63;;;24.90;;
18822;SDS011;9540;51.550;7.980;2022-12-13T00:16:44;73.77;;;23.67;;
18822;SDS011;9540;51.550;7.980;2022-12-13T00:19:12;64.67;;;23.17;;
18822;SDS011;9540;51.550;7.980;2022-12-13T00:21:40;71.67;;;24.63;;
18822;SDS011;9540;51.550;7.980;2022-12-13T00:24:07;62.63;;;25.40;;
18822;SDS011;9540;51.550;7.980;2022-12-13T00:26:34;66.80;;;25.07;;
18822;SDS011;9540;51.550;7.980;2022-12-13T00:29:03;63.20;;;23.30;;
18822;SDS011;9540;51.550;7.980;2022-12-13T00:31:31;67.33;;;24.43;;
18822;SDS011;9540;51.550;7.980;2022-12-13T00:34:01;66.03;;;24.80;;
18822;SDS011;9540;51.550;7.980;2022-12-13T00:36:28;59.00;;;22.93;;
18822;SDS011;9540;51.550;7.980;2022-12-13T00:38:55;52.27;;;21.33;;
18822;SDS011;9540;51.550;7.980;2022-12-13T00:41:26;57.53;;;23.23;;
18822;SDS011;9540;51.550;7.980;2022-12-13T00:43:55;54.40;;;21.33;;
18822;SDS011;9540;51.550;7.980;2022-12-13T00:46:22;53.50;;;20.40;;
18822;SDS011;9540;51.550;7.980;2022-12-13T00:48:51;57.33;;;22.97;;
18822;SDS011;9540;51.550;7.980;2022-12-13T00:51:20;55.67;;;20.87;;
18822;SDS011;9540;51.550;7.980;2022-12-13T00:53:48;56.77;;;22.30;;
18822;SDS011;9540;51.550;7.980;2022-12-13T00:56:16;57.27;;;22.47;;
18822;SDS011;9540;51.550;7.980;2022-12-13T00:58:46;56.60;;;22.53;;
18822;SDS011;9540;51.550;7.980;2022-12-13T01:01:14;60.87;;;23.17;;
18822;SDS011;9540;51.550;7.980;2022-12-13T01:03:43;59.23;;;24.07;;
18822;SDS011;9540;51.550;7.980;2022-12-13T01:06:11;61.77;;;23.50;;
18822;SDS011;9540;51.550;7.980;2022-12-13T01:08:41;61.80;;;22.67;;
18822;SDS011;9540;51.550;7.980;2022-12-13T01:11:09;62.27;;;22.87;;
18822;SDS011;9540;51.550;7.980;2022-12-13T01:13:37;56.77;;;22.40;;
18822;SDS011;9540;51.550;7.980;2022-12-13T01:16:06;58.90;;;22.13;;
18822;SDS011;9540;51.550;7.980;2022-12-13T01:18:35;55.67;;;21.30;;
18822;SDS011;9540;51.550;7.980;2022-12-13T01:21:03;61.27;;;22.93;;
18822;SDS011;9540;51.550;7.980;2022-12-13T01:23:32;55.97;;;23.50;;
18822;SDS011;9540;51.550;7.980;2022-12-13T01:26:02;65.53;;;23.53;;
18822;SDS011;9540;51.550;7.980;2022-12-13T01:28:30;63.03;;;23.33;;
18822;SDS011;9540;51.550;7.980;2022-12-13T01:30:58;56.83;;;22.97;;
18822;SDS011;9540;51.550;7.980;2022-12-13T01:33:27;64.43;;;23.83;;
18822;SDS011;9540;51.550;7.980;2022-12-13T01:35:54;61.50;;;21.83;;
18822;SDS011;9540;51.550;7.980;2022-12-13T01:38:22;55.97;;;22.13;;
18822;SDS011;9540;51.550;7.980;2022-12-13T01:40:49;64.43;;;22.73;;
18822;SDS011;9540;51.550;7.980;2022-12-13T01:43:24;57.93;;;20.47;;
18822;SDS011;9540;51.550;7.980;2022-12-13T01:45:53;61.67;;;23.13;;
18822;SDS011;9540;51.550;7.980;2022-12-13T01:48:27;60.40;;;20.93;;
18822;SDS011;9540;51.550;7.980;2022-12-13T01:50:57;54.97;;;20.67;;
18822;SDS011;9540;51.550;7.980;2022-12-13T01:53:28;48.17;;;20.73;;
18822;SDS011;9540;51.550;7.980;2022-12-13T01:55:59;55.23;;;20.47;;
18822;SDS011;9540;51.550;7.980;2022-12-13T01:58:31;51.53;;;21.47;;
18822;SDS011;9540;51.550;7.980;2022-12-13T02:01:00;51.50;;;19.97;;
18822;SDS011;9540;51.550;7.980;2022-12-13T02:03:27;57.03;;;21.03;;
18822;SDS011;9540;51.550;7.980;2022-12-13T02:05:55;52.83;;;20.53;;
18822;SDS011;9540;51.550;7.980;2022-12-13T02:08:26;59.50;;;20.43;;
18822;SDS011;9540;51.550;7.980;2022-12-13T02:10:54;55.23;;;21.40;;
18822;SDS011;9540;51.550;7.980;2022-12-13T02:13:22;47.93;;;20.90;;
18822;SDS011;9540;51.550;7.980;2022-12-13T02:15:52;53.93;;;20.27;;
18822;SDS011;9540;51.550;7.980;2022-12-13T02:18:29;62.37;;;20.13;;
18822;SDS011;9540;51.550;7.980;2022-12-13T02:21:17;52.57;;;20.07;;
18822;SDS011;9540;51.550;7.980;2022-12-13T02:26:59;51.17;;;19.70;;
18822;SDS011;9540;51.550;7.980;2022-12-13T02:32:42;53.57;;;19.63;;
18822;SDS011;9540;51.550;7.980;2022-12-13T02:35:21;54.30;;;19.33;;
18822;SDS011;9540;51.550;7.980;2022-12-13T02:37:54;63.13;;;21.17;;
18822;SDS011;9540;51.550;7.980;2022-12-13T02:40:27;48.23;;;20.17;;
18822;SDS011;9540;51.550;7.980;2022-12-13T02:42:58;58.77;;;20.60;;
18822;SDS011;9540;51.550;7.980;2022-12-13T02:45:31;56.60;;;20.87;;
18822;SDS011;9540;51.550;7.980;2022-12-13T02:48:04;54.47;;;20.27;;
18822;SDS011;9540;51.550;7.980;2022-12-13T02:50:36;49.53;;;21.67;;
18822;SDS011;9540;51.550;7.980;2022-12-13T02:53:04;50.80;;;20.23;;
18822;SDS011;9540;51.550;7.980;2022-12-13T02:55:32;67.23;;;22.27;;
18822;SDS011;9540;51.550;7.980;2022-12-13T02:58:00;57.07;;;21.63;;
18822;SDS011;9540;51.550;7.980;2022-12-13T03:00:29;48.77;;;22.60;;
18822;SDS011;9540;51.550;7.980;2022-12-13T03:03:11;48.07;;;19.37;;
18822;SDS011;9540;51.550;7.980;2022-12-13T03:05:47;56.13;;;20.30;;
18822;SDS011;9540;51.550;7.980;2022-12-13T03:08:41;63.60;;;21.87;;
18822;SDS011;9540;51.550;7.980;2022-12-13T03:11:14;52.13;;;22.07;;
18822;SDS011;9540;51.550;7.980;2022-12-13T03:13:45;53.93;;;21.43;;
18822;SDS011;9540;51.550;7.980;2022-12-13T03:16:24;54.07;;;21.60;;
18822;SDS011;9540;51.550;7.980;2022-12-13T03:18:58;45.70;;;18.60;;
18822;SDS011;9540;51.550;7.980;2022-12-13T03:21:27;48.77;;;19.43;;
18822;SDS011;9540;51.550;7.980;2022-12-13T03:23:55;44.10;;;20.20;;
18822;SDS011;9540;51.550;7.980;2022-12-13T03:26:23;51.20;;;20.10;;
18822;SDS011;9540;51.550;7.980;2022-12-13T03:28:52;51.00;;;20.13;;
18822;SDS011;9540;51.550;7.980;2022-12-13T03:31:20;47.83;;;19.47;;
18822;SDS011;9540;51.550;7.980;2022-12-13T03:33:48;47.70;;;18.87;;
18822;SDS011;9540;51.550;7.980;2022-12-13T03:36:16;45.50;;;18.60;;
18822;SDS011;9540;51.550;7.980;2022-12-13T03:38:44;57.27;;;21.60;;
18822;SDS011;9540;51.550;7.980;2022-12-13T03:41:13;50.20;;;19.20;;
18822;SDS011;9540;51.550;7.980;2022-12-13T03:43:42;50.23;;;19.73;;
18822;SDS011;9540;51.550;7.980;2022-12-13T03:46:09;48.43;;;19.50;;
18822;SDS011;9540;51.550;7.980;2022-12-13T03:48:37;46.80;;;18.63;;
18822;SDS011;9540;51.550;7.980;2022-12-13T03:51:05;47.93;;;20.10;;
18822;SDS011;9540;51.550;7.980;2022-12-13T03:53:35;49.23;;;18.40;;
18822;SDS011;9540;51.550;7.980;2022-12-13T03:56:03;44.67;;;17.17;;
18822;SDS011;9540;51.550;7.980;2022-12-13T03:58:32;40.30;;;16.90;;
18822;SDS011;9540;51.550;7.980;2022-12-13T04:01:00;46.67;;;17.70;;
18822;SDS011;9540;51.550;7.980;2022-12-13T04:03:28;44.17;;;17.17;;
18822;SDS011;9540;51.550;7.980;2022-12-13T04:05:55;48.50;;;18.53;;
18822;SDS011;9540;51.550;7.980;2022-12-13T04:08:22;52.10;;;20.20;;
18822;SDS011;9540;51.550;7.980;2022-12-13T04:10:50;45.93;;;19.20;;
18822;SDS011;9540;51.550;7.980;2022-12-13T04:13:17;48.67;;;19.93;;
18822;SDS011;9540;51.550;7.980;2022-12-13T04:15:59;43.53;;;17.57;;
18822;SDS011;9540;51.550;7.980;2022-12-13T04:18:26;48.27;;;18.57;;
18822;SDS011;9540;51.550;7.980;2022-12-13T04:20:53;52.70;;;18.57;;
18822;SDS011;9540;51.550;7.980;2022-12-13T04:23:21;45.90;;;18.70;;
18822;SDS011;9540;51.550;7.980;2022-12-13T04:25:48;44.17;;;17.63;;
18822;SDS011;9540;51.550;7.980;2022-12-13T04:28:17;43.73;;;18.37;;
18822;SDS011;9540;51.550;7.980;2022-12-13T04:30:44;44.57;;;18.67;;
18822;SDS011;9540;51.550;7.980;2022-12-13T04:33:11;51.23;;;18.73;;
18822;SDS011;9540;51.550;7.980;2022-12-13T04:35:38;42.93;;;17.77;;
18822;SDS011;9540;51.550;7.980;2022-12-13T04:38:05;45.27;;;16.67;;
18822;SDS011;9540;51.550;7.980;2022-12-13T04:40:32;41.53;;;16.37;;
18822;SDS011;9540;51.550;7.980;2022-12-13T04:43:00;43.63;;;16.87;;
18822;SDS011;9540;51.550;7.980;2022-12-13T04:45:28;38.70;;;16.10;;
18822;SDS011;9540;51.550;7.980;2022-12-13T04:47:55;39.00;;;16.13;;
18822;SDS011;9540;51.550;7.980;2022-12-13T04:50:22;37.23;;;16.30;;
18822;SDS011;9540;51.550;7.980;2022-12-13T04:52:49;35.63;;;15.33;;
18822;SDS011;9540;51.550;7.980;2022-12-13T04:55:17;40.07;;;17.30;;
18822;SDS011;9540;51.550;7.980;2022-12-13T04:57:44;35.43;;;15.27;;
18822;SDS011;9540;51.550;7.980;2022-12-13T05:00:11;44.07;;;16.73;;
18822;SDS011;9540;51.550;7.980;2022-12-13T05:02:41;34.50;;;16.07;;
18822;SDS011;9540;51.550;7.980;2022-12-13T05:05:08;44.37;;;16.20;;
18822;SDS011;9540;51.550;7.980;2022-12-13T05:07:36;35.90;;;15.37;;
18822;SDS011;9540;51.550;7.980;2022-12-13T05:10:03;39.53;;;16.23;;
18822;SDS011;9540;51.550;7.980;2022-12-13T05:12:31;36.43;;;14.90;;
18822;SDS011;9540;51.550;7.980;2022-12-13T05:14:58;33.70;;;14.80;;
18822;SDS011;9540;51.550;7.980;2022-12-13T05:17:25;38.00;;;15.00;;
18822;SDS011;9540;51.550;7.980;2022-12-13T05:19:54;39.47;;;15.17;;
18822;SDS011;9540;51.550;7.980;2022-12-13T05:22:21;35.70;;;14.63;;
18822;SDS011;9540;51.550;7.980;2022-12-13T05:24:48;33.80;;;14.67;;
18822;SDS011;9540;51.550;7.980;2022-12-13T05:27:15;34.73;;;15.90;;
18822;SDS011;9540;51.550;7.980;2022-12-13T05:29:42;38.57;;;15.67;;
18822;SDS011;9540;51.550;7.980;2022-12-13T05:32:09;35.93;;;15.80;;
18822;SDS011;9540;51.550;7.980;2022-12-13T05:34:36;42.23;;;15.40;;
18822;SDS011;9540;51.550;7.980;2022-12-13T05:37:05;36.07;;;15.07;;
18822;SDS011;9540;51.550;7.980;2022-12-13T05:39:32;34.10;;;14.93;;
18822;SDS011;9540;51.550;7.980;2022-12-13T05:41:59;34.77;;;16.03;;
18822;SDS011;9540;51.550;7.980;2022-12-13T05:44:26;30.53;;;15.37;;
18822;SDS011;9540;51.550;7.980;2022-12-13T05:46:53;35.83;;;15.67;;
18822;SDS011;9540;51.550;7.980;2022-12-13T05:49:21;43.57;;;16.67;;
18822;SDS011;9540;51.550;7.980;2022-12-13T05:51:48;39.77;;;15.93;;
18822;SDS011;9540;51.550;7.980;2022-12-13T05:54:17;36.57;;;15.83;;
18822;SDS011;9540;51.550;7.980;2022-12-13T05:56:44;37.90;;;17.33;;
18822;SDS011;9540;51.550;7.980;2022-12-13T05:59:11;36.47;;;15.77;;
18822;SDS011;9540;51.550;7.980;2022-12-13T06:01:39;36.10;;;14.70;;
18822;SDS011;9540;51.550;7.980;2022-12-13T06:04:06;36.33;;;15.20;;
18822;SDS011;9540;51.550;7.980;2022-12-13T06:06:33;44.73;;;16.07;;
18822;SDS011;9540;51.550;7.980;2022-12-13T06:09:00;32.77;;;14.90;;
18822;SDS011;9540;51.550;7.980;2022-12-13T06:11:29;32.03;;;14.50;;
18822;SDS011;9540;51.550;7.980;2022-12-13T06:13:56;33.83;;;14.30;;
18822;SDS011;9540;51.550;7.980;2022-12-13T06:16:23;36.07;;;14.90;;
18822;SDS011;9540;51.550;7.980;2022-12-13T06:18:51;35.37;;;14.83;;
18822;SDS011;9540;51.550;7.980;2022-12-13T06:21:18;35.77;;;14.43;;
18822;SDS011;9540;51.550;7.980;2022-12-13T06:23:45;33.10;;;15.00;;
18822;SDS011;9540;51.550;7.980;2022-12-13T06:26:12;38.50;;;15.97;;
18822;SDS011;9540;51.550;7.980;2022-12-13T06:28:40;37.83;;;14.73;;
18822;SDS011;9540;51.550;7.980;2022-12-13T06:31:08;32.73;;;15.30;;
18822;SDS011;9540;51.550;7.980;2022-12-13T06:33:35;36.73;;;14.93;;
18822;SDS011;9540;51.550;7.980;2022-12-13T06:36:03;34.50;;;14.53;;
18822;SDS011;9540;51.550;7.980;2022-12-13T06:38:30;34.47;;;15.23;;
18822;SDS011;9540;51.550;7.980;2022-12-13T06:41:07;33.53;;;14.43;;
18822;SDS011;9540;51.550;7.980;2022-12-13T06:43:35;30.23;;;13.30;;
18822;SDS011;9540;51.550;7.980;2022-12-13T06:46:04;30.63;;;14.23;;
18822;SDS011;9540;51.550;7.980;2022-12-13T06:48:32;32.70;;;13.63;;
18822;SDS011;9540;51.550;7.980;2022-12-13T06:50:59;34.90;;;14.90;;
18822;SDS011;9540;51.550;7.980;2022-12-13T06:53:27;31.20;;;13.03;;
18822;SDS011;9540;51.550;7.980;2022-12-13T06:55:54;38.47;;;14.63;;
18822;SDS011;9540;51.550;7.980;2022-12-13T06:58:22;29.03;;;14.00;;
18822;SDS011;9540;51.550;7.980;2022-12-13T07:00:49;30.47;;;14.30;;
18822;SDS011;9540;51.550;7.980;2022-12-13T07:03:27;30.40;;;13.57;;
18822;SDS011;9540;51.550;7.980;2022-12-13T07:05:56;34.00;;;14.37;;
18822;SDS011;9540;51.550;7.980;2022-12-13T07:08:24;32.20;;;13.47;;
18822;SDS011;9540;51.550;7.980;2022-12-13T07:10:51;36.10;;;14.97;;
18822;SDS011;9540;51.550;7.980;2022-12-13T07:13:19;33.90;;;14.17;;
18822;SDS011;9540;51.550;7.980;2022-12-13T07:15:47;32.70;;;14.03;;
18822;SDS011;9540;51.550;7.980;2022-12-13T07:18:14;30.67;;;14.07;;
18822;SDS011;9540;51.550;7.980;2022-12-13T07:20:43;34.43;;;13.90;;
18822;SDS011;9540;51.550;7.980;2022-12-13T07:23:10;32.13;;;13.80;;
18822;SDS011;9540;51.550;7.980;2022-12-13T07:25:38;31.10;;;12.97;;
18822;SDS011;9540;51.550;7.980;2022-12-13T07:28:06;36.83;;;14.27;;
18822;SDS011;9540;51.550;7.980;2022-12-13T07:30:36;31.70;;;14.30;;
18822;SDS011;9540;51.550;7.980;2022-12-13T07:33:04;32.40;;;14.50;;
18822;SDS011;9540;51.550;7.980;2022-12-13T07:35:33;32.40;;;14.67;;
18822;SDS011;9540;51.550;7.980;2022-12-13T07:38:01;35.63;;;14.63;;
18822;SDS011;9540;51.550;7.980;2022-12-13T07:40:28;32.27;;;13.57;;
18822;SDS011;9540;51.550;7.980;2022-12-13T07:42:56;36.87;;;14.77;;
18822;SDS011;9540;51.550;7.980;2022-12-13T07:45:23;30.93;;;13.90;;
18822;SDS011;9540;51.550;7.980;2022-12-13T07:47:50;34.10;;;13.57;;
18822;SDS011;9540;51.550;7.980;2022-12-13T07:50:18;30.87;;;14.57;;
18822;SDS011;9540;51.550;7.980;2022-12-13T07:52:46;34.57;;;13.47;;
18822;SDS011;9540;51.550;7.980;2022-12-13T07:55:15;32.67;;;13.73;;
18822;SDS011;9540;51.550;7.980;2022-12-13T07:57:42;31.80;;;14.20;;
18822;SDS011;9540;51.550;7.980;2022-12-13T08:00:10;32.60;;;14.03;;
18822;SDS011;9540;51.550;7.980;2022-12-13T08:02:38;29.73;;;13.87;;
18822;SDS011;9540;51.550;7.980;2022-12-13T08:05:06;37.33;;;14.83;;
18822;SDS011;9540;51.550;7.980;2022-12-13T08:07:34;31.83;;;14.40;;
18822;SDS011;9540;51.550;7.980;2022-12-13T08:10:02;35.23;;;14.07;;
18822;SDS011;9540;51.550;7.980;2022-12-13T08:12:31;36.23;;;14.50;;
18822;SDS011;9540;51.550;7.980;2022-12-13T08:14:58;30.77;;;14.70;;
18822;SDS011;9540;51.550;7.980;2022-12-13T08:17:26;35.00;;;14.77;;
18822;SDS011;9540;51.550;7.980;2022-12-13T08:19:53;28.07;;;12.97;;
18822;SDS011;9540;51.550;7.980;2022-12-13T08:22:20;28.37;;;12.87;;
18822;SDS011;9540;51.550;7.980;2022-12-13T08:24:47;27.80;;;13.57;;
18822;SDS011;9540;51.550;7.980;2022-12-13T08:27:14;27.23;;;13.17;;
18822;SDS011;9540;51.550;7.980;2022-12-13T08:29:43;25.97;;;12.33;;
18822;SDS011;9540;51.550;7.980;2022-12-13T08:32:10;26.27;;;12.23;;
18822;SDS011;9540;51.550;7.980;2022-12-13T08:34:38;24.00;;;11.57;;
18822;SDS011;9540;51.550;7.980;2022-12-13T08:37:06;22.87;;;12.20;;
18822;SDS011;9540;51.550;7.980;2022-12-13T08:39:34;20.47;;;11.23;;
18822;SDS011;9540;51.550;7.980;2022-12-13T08:42:03;22.47;;;11.60;;
18822;SDS011;9540;51.550;7.980;2022-12-13T08:44:31;17.37;;;10.20;;
18822;SDS011;9540;51.550;7.980;2022-12-13T08:46:59;20.83;;;10.13;;
18822;SDS011;9540;51.550;7.980;2022-12-13T08:49:26;16.43;;;9.90;;
18822;SDS011;9540;51.550;7.980;2022-12-13T08:51:54;17.77;;;11.00;;
18822;SDS011;9540;51.550;7.980;2022-12-13T08:54:21;20.13;;;11.07;;
18822;SDS011;9540;51.550;7.980;2022-12-13T08:56:49;18.30;;;10.10;;
18822;SDS011;9540;51.550;7.980;2022-12-13T08:59:16;19.03;;;10.97;;
18822;SDS011;9540;51.550;7.980;2022-12-13T09:01:44;17.53;;;9.87;;
18822;SDS011;9540;51.550;7.980;2022-12-13T09:04:13;16.87;;;8.50;;
18822;SDS011;9540;51.550;7.980;2022-12-13T09:06:40;16.50;;;9.40;;
18822;SDS011;9540;51.550;7.980;2022-12-13T09:09:08;18.73;;;10.10;;
18822;SDS011;9540;51.550;7.980;2022-12-13T09:11:37;19.07;;;9.67;;
18822;SDS011;9540;51.550;7.980;2022-12-13T09:14:04;18.30;;;10.23;;
18822;SDS011;9540;51.550;7.980;2022-12-13T09:16:32;19.17;;;9.77;;
18822;SDS011;9540;51.550;7.980;2022-12-13T09:19:00;18.37;;;10.00;;
18822;SDS011;9540;51.550;7.980;2022-12-13T09:21:30;21.13;;;10.30;;
18822;SDS011;9540;51.550;7.980;2022-12-13T09:23:57;17.50;;;9.47;;
18822;SDS011;9540;51.550;7.980;2022-12-13T09:26:25;16.33;;;8.90;;
18822;SDS011;9540;51.550;7.980;2022-12-13T09:28:52;15.33;;;9.57;;
18822;SDS011;9540;51.550;7.980;2022-12-13T09:31:19;16.77;;;9.00;;
18822;SDS011;9540;51.550;7.980;2022-12-13T09:33:46;13.27;;;8.60;;
18822;SDS011;9540;51.550;7.980;2022-12-13T09:36:14;13.93;;;9.07;;
18822;SDS011;9540;51.550;7.980;2022-12-13T09:38:44;18.93;;;9.70;;
18822;SDS011;9540;51.550;7.980;2022-12-13T09:41:16;16.17;;;8.77;;
18822;SDS011;9540;51.550;7.980;2022-12-13T09:43:47;13.03;;;8.07;;
18822;SDS011;9540;51.550;7.980;2022-12-13T09:46:21;15.93;;;9.10;;
18822;SDS011;9540;51.550;7.980;2022-12-13T09:48:52;14.48;;;8.77;;
18822;SDS011;9540;51.550;7.980;2022-12-13T09:51:21;13.50;;;8.93;;
18822;SDS011;9540;51.550;7.980;2022-12-13T09:53:52;16.23;;;9.77;;
18822;SDS011;9540;51.550;7.980;2022-12-13T09:56:20;13.63;;;8.52;;
18822;SDS011;9540;51.550;7.980;2022-12-13T09:58:49;13.52;;;8.82;;
18822;SDS011;9540;51.550;7.980;2022-12-13T10:01:18;16.45;;;9.90;;
18822;SDS011;9540;51.550;7.980;2022-12-13T10:03:47;14.23;;;9.52;;
18822;SDS011;9540;51.550;7.980;2022-12-13T10:06:16;14.15;;;8.77;;
18822;SDS011;9540;51.550;7.980;2022-12-13T10:08:46;15.85;;;9.73;;
18822;SDS011;9540;51.550;7.980;2022-12-13T10:11:17;16.13;;;9.93;;
18822;SDS011;9540;51.550;7.980;2022-12-13T10:13:46;18.30;;;9.90;;
18822;SDS011;9540;51.550;7.980;2022-12-13T10:16:21;16.05;;;9.90;;
18822;SDS011;9540;51.550;7.980;2022-12-13T10:18:52;19.65;;;9.98;;
18822;SDS011;9540;51.550;7.980;2022-12-13T10:21:24;20.27;;;11.23;;
18822;SDS011;9540;51.550;7.980;2022-12-13T10:23:54;19.13;;;10.27;;
18822;SDS011;9540;51.550;7.980;2022-12-13T10:26:30;19.30;;;11.17;;
18822;SDS011;9540;51.550;7.980;2022-12-13T10:29:02;18.60;;;10.63;;
18822;SDS011;9540;51.550;7.980;2022-12-13T10:31:36;20.57;;;12.40;;
18822;SDS011;9540;51.550;7.980;2022-12-13T10:34:07;17.67;;;10.23;;
18822;SDS011;9540;51.550;7.980;2022-12-13T10:36:45;16.90;;;10.67;;
18822;SDS011;9540;51.550;7.980;2022-12-13T10:39:13;20.67;;;11.60;;
18822;SDS011;9540;51.550;7.980;2022-12-13T10:41:44;19.23;;;10.83;;
18822;SDS011;9540;51.550;7.980;2022-12-13T10:44:15;21.83;;;11.17;;
18822;SDS011;9540;51.550;7.980;2022-12-13T10:46:48;18.90;;;11.53;;
18822;SDS011;9540;51.550;7.980;2022-12-13T10:49:17;18.27;;;11.27;;
18822;SDS011;9540;51.550;7.980;2022-12-13T10:51:47;21.80;;;11.77;;
18822;SDS011;9540;51.550;7.980;2022-12-13T10:54:18;22.03;;;11.77;;
18822;SDS011;9540;51.550;7.980;2022-12-13T10:56:53;16.97;;;10.27;;
18822;SDS011;9540;51.550;7.980;2022-12-13T10:59:30;22.27;;;11.67;;
18822;SDS011;9540;51.550;7.980;2022-12-13T11:01:58;21.00;;;11.63;;
18822;SDS011;9540;51.550;7.980;2022-12-13T11:04:28;18.73;;;10.53;;
18822;SDS011;9540;51.550;7.980;2022-12-13T11:06:57;17.53;;;10.57;;
18822;SDS011;9540;51.550;7.980;2022-12-13T11:09:27;19.57;;;10.27;;
18822;SDS011;9540;51.550;7.980;2022-12-13T11:11:57;19.20;;;11.73;;
18822;SDS011;9540;51.550;7.980;2022-12-13T11:14:30;19.73;;;10.93;;
18822;SDS011;9540;51.550;7.980;2022-12-13T11:17:03;16.47;;;10.27;;
18822;SDS011;9540;51.550;7.980;2022-12-13T11:19:35;18.07;;;10.77;;
18822;SDS011;9540;51.550;7.980;2022-12-13T11:22:06;18.30;;;10.47;;
18822;SDS011;9540;51.550;7.980;2022-12-13T11:24:35;20.30;;;12.23;;
18822;SDS011;9540;51.550;7.980;2022-12-13T11:27:10;19.47;;;12.30;;
18822;SDS011;9540;51.550;7.980;2022-12-13T11:29:56;19.33;;;11.93;;
18822;SDS011;9540;51.550;7.980;2022-12-13T11:32:37;19.77;;;12.10;;
18822;SDS011;9540;51.550;7.980;2022-12-13T11:35:19;21.53;;;11.63;;
18822;SDS011;9540;51.550;7.980;2022-12-13T11:37:52;22.63;;;11.50;;
18822;SDS011;9540;51.550;7.980;2022-12-13T11:40:26;22.40;;;11.87;;
18822;SDS011;9540;51.550;7.980;2022-12-13T11:43:00;22.43;;;13.77;;
18822;SDS011;9540;51.550;7.980;2022-12-13T11:45:32;20.02;;;11.77;;
18822;SDS011;9540;51.550;7.980;2022-12-13T11:48:04;19.35;;;11.82;;
18822;SDS011;9540;51.550;7.980;2022-12-13T11:50:43;18.23;;;11.98;;
18822;SDS011;9540;51.550;7.980;2022-12-13T11:53:20;19.23;;;12.07;;
18822;SDS011;9540;51.550;7.980;2022-12-13T11:55:55;20.70;;;12.40;;
18822;SDS011;9540;51.550;7.980;2022-12-13T11:58:32;22.17;;;13.13;;
18822;SDS011;9540;51.550;7.980;2022-12-13T12:01:03;16.95;;;11.70;;
18822;SDS011;9540;51.550;7.980;2022-12-13T12:03:38;19.88;;;11.75;;
18822;SDS011;9540;51.550;7.980;2022-12-13T12:06:13;21.83;;;13.40;;
18822;SDS011;9540;51.550;7.980;2022-12-13T12:08:46;23.02;;;13.23;;
18822;SDS011;9540;51.550;7.980;2022-12-13T12:11:21;18.50;;;11.73;;
18822;SDS011;9540;51.550;7.980;2022-12-13T12:13:57;19.40;;;11.68;;
18822;SDS011;9540;51.550;7.980;2022-12-13T12:16:37;19.50;;;12.45;;
18822;SDS011;9540;51.550;7.980;2022-12-13T12:19:10;20.23;;;12.55;;
18822;SDS011;9540;51.550;7.980;2022-12-13T12:21:44;21.58;;;11.40;;
18822;SDS011;9540;51.550;7.980;2022-12-13T12:24:27;19.60;;;11.98;;
18822;SDS011;9540;51.550;7.980;2022-12-13T12:30:07;19.03;;;11.83;;
18822;SDS011;9540;51.550;7.980;2022-12-13T12:32:41;19.88;;;12.27;;
18822;SDS011;9540;51.550;7.980;2022-12-13T12:41:29;23.13;;;12.67;;
18822;SDS011;9540;51.550;7.980;2022-12-13T12:44:03;25.43;;;13.67;;
18822;SDS011;9540;51.550;7.980;2022-12-13T12:46:42;23.90;;;13.13;;
18822;SDS011;9540;51.550;7.980;2022-12-13T12:49:29;21.43;;;12.27;;
18822;SDS011;9540;51.550;7.980;2022-12-13T12:52:21;25.13;;;14.37;;
18822;SDS011;9540;51.550;7.980;2022-12-13T12:54:57;27.33;;;14.43;;
18822;SDS011;9540;51.550;7.980;2022-12-13T12:57:33;23.33;;;13.13;;
18822;SDS011;9540;51.550;7.980;2022-12-13T13:00:09;29.93;;;13.77;;
18822;SDS011;9540;51.550;7.980;2022-12-13T13:02:40;25.60;;;13.37;;
18822;SDS011;9540;51.550;7.980;2022-12-13T13:05:14;24.43;;;13.67;;
18822;SDS011;9540;51.550;7.980;2022-12-13T13:07:48;26.33;;;12.80;;
18822;SDS011;9540;51.550;7.980;2022-12-13T13:10:21;29.27;;;15.10;;
18822;SDS011;9540;51.550;7.980;2022-12-13T13:12:49;29.03;;;14.70;;
18822;SDS011;9540;51.550;7.980;2022-12-13T13:24:13;26.10;;;14.80;;
18822;SDS011;9540;51.550;7.980;2022-12-13T13:26:44;27.00;;;14.77;;
18822;SDS011;9540;51.550;7.980;2022-12-13T13:29:27;30.47;;;15.10;;
18822;SDS011;9540;51.550;7.980;2022-12-13T13:31:57;29.23;;;14.37;;
18822;SDS011;9540;51.550;7.980;2022-12-13T13:34:29;30.97;;;15.03;;
18822;SDS011;9540;51.550;7.980;2022-12-13T13:36:58;33.27;;;16.93;;
18822;SDS011;9540;51.550;7.980;2022-12-13T13:39:37;26.83;;;13.43;;
18822;SDS011;9540;51.550;7.980;2022-12-13T13:42:25;31.10;;;14.67;;
18822;SDS011;9540;51.550;7.980;2022-12-13T13:47:48;30.63;;;15.10;;
18822;SDS011;9540;51.550;7.980;2022-12-13T13:50:40;31.53;;;16.00;;
18822;SDS011;9540;51.550;7.980;2022-12-13T13:53:44;31.23;;;15.03;;
18822;SDS011;9540;51.550;7.980;2022-12-13T13:59:44;24.30;;;13.47;;
18822;SDS011;9540;51.550;7.980;2022-12-13T14:08:42;27.57;;;15.07;;
18822;SDS011;9540;51.550;7.980;2022-12-13T14:11:52;29.33;;;15.17;;
18822;SDS011;9540;51.550;7.980;2022-12-13T14:15:15;30.10;;;15.90;;
18822;SDS011;9540;51.550;7.980;2022-12-13T14:21:23;33.33;;;15.13;;
18822;SDS011;9540;51.550;7.980;2022-12-13T14:24:01;31.47;;;15.50;;
18822;SDS011;9540;51.550;7.980;2022-12-13T14:26:42;30.07;;;16.03;;
18822;SDS011;9540;51.550;7.980;2022-12-13T14:29:36;30.27;;;15.50;;
18822;SDS011;9540;51.550;7.980;2022-12-13T14:32:07;29.83;;;15.47;;
18822;SDS011;9540;51.550;7.980;2022-12-13T14:34:36;35.87;;;17.87;;
18822;SDS011;9540;51.550;7.980;2022-12-13T14:37:05;33.37;;;16.23;;
18822;SDS011;9540;51.550;7.980;2022-12-13T14:39:49;30.47;;;14.97;;
18822;SDS011;9540;51.550;7.980;2022-12-13T14:42:19;27.93;;;13.53;;
18822;SDS011;9540;51.550;7.980;2022-12-13T14:44:48;26.17;;;14.40;;
18822;SDS011;9540;51.550;7.980;2022-12-13T14:47:16;27.83;;;15.17;;
18822;SDS011;9540;51.550;7.980;2022-12-13T14:49:44;29.27;;;14.50;;
18822;SDS011;9540;51.550;7.980;2022-12-13T14:52:18;33.97;;;15.07;;
18822;SDS011;9540;51.550;7.980;2022-12-13T14:54:51;25.53;;;13.60;;
18822;SDS011;9540;51.550;7.980;2022-12-13T14:57:21;29.47;;;14.33;;
18822;SDS011;9540;51.550;7.980;2022-12-13T14:59:51;30.60;;;15.03;;
18822;SDS011;9540;51.550;7.980;2022-12-13T15:02:32;30.23;;;15.07;;
18822;SDS011;9540;51.550;7.980;2022-12-13T15:05:01;30.47;;;14.67;;
18822;SDS011;9540;51.550;7.980;2022-12-13T15:07:34;32.50;;;15.93;;
18822;SDS011;9540;51.550;7.980;2022-12-13T15:10:14;25.87;;;13.97;;
18822;SDS011;9540;51.550;7.980;2022-12-13T15:12:47;34.97;;;15.67;;
18822;SDS011;9540;51.550;7.980;2022-12-13T15:15:19;29.63;;;15.63;;
18822;SDS011;9540;51.550;7.980;2022-12-13T15:18:02;33.60;;;15.90;;
18822;SDS011;9540;51.550;7.980;2022-12-13T15:20:41;27.93;;;14.57;;
18822;SDS011;9540;51.550;7.980;2022-12-13T15:23:10;40.77;;;17.07;;
18822;SDS011;9540;51.550;7.980;2022-12-13T15:25:44;35.23;;;15.57;;
18822;SDS011;9540;51.550;7.980;2022-12-13T15:28:15;30.77;;;15.83;;
18822;SDS011;9540;51.550;7.980;2022-12-13T15:30:42;30.73;;;16.17;;
18822;SDS011;9540;51.550;7.980;2022-12-13T15:33:15;34.63;;;15.77;;
18822;SDS011;9540;51.550;7.980;2022-12-13T15:35:59;34.63;;;16.83;;
18822;SDS011;9540;51.550;7.980;2022-12-13T15:38:31;31.70;;;15.40;;